createdAt,value
2018-08-09T00:00:19.862Z,11.10
2018-08-09T00:01:19.882Z,10.80
2018-08-09T00:02:19.911Z,11.40
2018-08-09T00:03:19.931Z,11.20
2018-08-09T00:04:19.951Z,11.10
2018-08-09T00:05:19.970Z,11.40
2018-08-09T00:06:20.041Z,12.00
2018-08-09T00:07:20.021Z,12.00
2018-08-09T00:08:20.081Z,10.50
2018-08-09T00:09:20.065Z,11.50
2018-08-09T00:10:20.081Z,11.30
2018-08-09T00:11:20.109Z,11.20
2018-08-09T00:12:20.125Z,10.80
2018-08-09T00:13:20.150Z,11.40
2018-08-09T00:14:20.168Z,11.40
2018-08-09T00:15:20.191Z,11.40
2018-08-09T00:16:20.214Z,10.90
2018-08-09T00:17:20.234Z,11.00
2018-08-09T00:18:20.258Z,11.60
2018-08-09T00:19:20.359Z,11.10
2018-08-09T00:20:20.299Z,11.50
2018-08-09T00:21:20.322Z,11.50
2018-08-09T00:22:20.343Z,12.30
2018-08-09T00:23:20.508Z,11.50
2018-08-09T00:24:20.386Z,10.90
2018-08-09T00:25:20.409Z,11.40
2018-08-09T00:26:20.434Z,10.90
2018-08-09T00:27:20.471Z,11.20
2018-08-09T00:28:20.472Z,11.00
2018-08-09T00:29:20.496Z,12.00
2018-08-09T00:30:20.518Z,11.30
2018-08-09T00:31:20.539Z,10.90
2018-08-09T00:32:20.561Z,11.80
2018-08-09T00:33:20.585Z,12.00
2018-08-09T00:34:20.609Z,11.20
2018-08-09T00:35:20.625Z,11.60
2018-08-09T00:36:20.647Z,12.50
2018-08-09T00:37:20.670Z,11.80
2018-08-09T00:38:20.704Z,12.20
2018-08-09T00:39:20.716Z,13.00
2018-08-09T00:40:20.736Z,11.90
2018-08-09T00:41:20.757Z,12.70
2018-08-09T00:42:20.794Z,11.90
2018-08-09T00:43:20.803Z,12.30
2018-08-09T00:44:20.858Z,12.10
2018-08-09T00:45:20.843Z,11.60
2018-08-09T00:46:20.868Z,12.90
2018-08-09T00:47:20.930Z,12.10
2018-08-09T00:48:20.949Z,11.80
2018-08-09T00:49:20.929Z,11.90
2018-08-09T00:50:20.951Z,12.00
2018-08-09T00:51:20.974Z,11.90
2018-08-09T00:52:20.995Z,11.50
2018-08-09T00:53:21.014Z,12.50
2018-08-09T00:54:21.050Z,11.40
2018-08-09T00:55:21.060Z,11.80
2018-08-09T00:56:21.097Z,11.10
2018-08-09T00:57:21.102Z,11.10
2018-08-09T00:58:21.138Z,10.10
2018-08-09T00:59:21.155Z,10.00
2018-08-09T01:00:21.170Z,10.80
2018-08-09T01:01:21.189Z,10.60
2018-08-09T01:02:21.217Z,10.40
2018-08-09T01:03:21.242Z,10.50
2018-08-09T01:04:21.255Z,10.60
2018-08-09T01:05:21.278Z,11.50
2018-08-09T01:06:21.304Z,10.50
2018-08-09T01:07:21.321Z,11.00
2018-08-09T01:08:21.341Z,11.00
2018-08-09T01:09:21.366Z,10.60
2018-08-09T01:10:21.570Z,11.10
2018-08-09T01:11:21.409Z,11.00
2018-08-09T01:12:21.437Z,10.60
2018-08-09T01:13:21.453Z,10.70
2018-08-09T01:14:21.476Z,10.70
2018-08-09T01:15:21.507Z,10.80
2018-08-09T01:16:21.521Z,11.10
2018-08-09T01:17:21.540Z,10.60
2018-08-09T01:18:21.566Z,10.60
2018-08-09T01:19:21.590Z,10.40
2018-08-09T01:20:21.612Z,10.90
2018-08-09T01:21:21.627Z,11.20
2018-08-09T01:22:21.654Z,10.80
2018-08-09T01:23:21.674Z,12.00
2018-08-09T01:24:21.695Z,10.90
2018-08-09T01:25:21.714Z,11.50
2018-08-09T01:26:21.741Z,11.30
2018-08-09T01:27:21.761Z,11.90
2018-08-09T01:28:21.783Z,10.90
2018-08-09T01:29:21.803Z,10.70
2018-08-09T01:30:21.856Z,11.30
2018-08-09T01:31:21.847Z,10.90
2018-08-09T01:32:21.866Z,11.70
2018-08-09T01:33:21.892Z,11.30
2018-08-09T01:34:21.912Z,11.70
2018-08-09T01:35:21.931Z,11.70
2018-08-09T01:36:21.965Z,11.80
2018-08-09T01:37:21.975Z,11.90
2018-08-09T01:38:21.997Z,11.80
2018-08-09T01:39:22.023Z,11.60
2018-08-09T01:40:22.041Z,11.80
2018-08-09T01:41:22.067Z,11.80
2018-08-09T01:42:22.081Z,12.00
2018-08-09T01:43:22.103Z,11.70
2018-08-09T01:44:22.128Z,12.30
2018-08-09T01:45:22.148Z,11.20
2018-08-09T01:46:22.171Z,10.80
2018-08-09T01:47:22.359Z,11.70
2018-08-09T01:48:22.215Z,11.60
2018-08-09T01:49:22.237Z,11.70
2018-08-09T01:50:22.261Z,11.90
2018-08-09T01:51:22.280Z,11.90
2018-08-09T01:52:22.302Z,11.60
2018-08-09T01:53:22.324Z,12.10
2018-08-09T01:54:22.343Z,11.70
2018-08-09T01:55:22.366Z,11.70
2018-08-09T01:56:22.386Z,11.40
2018-08-09T01:57:22.414Z,12.00
2018-08-09T01:58:22.427Z,11.80
2018-08-09T01:59:22.450Z,12.20
2018-08-09T02:00:22.473Z,11.90
2018-08-09T02:01:22.504Z,11.10
2018-08-09T02:02:22.577Z,11.50
2018-08-09T02:03:22.536Z,11.70
2018-08-09T02:04:22.570Z,12.00
2018-08-09T02:05:22.581Z,12.20
2018-08-09T02:06:22.609Z,11.90
2018-08-09T02:07:22.625Z,12.60
2018-08-09T02:08:22.645Z,13.00
2018-08-09T02:09:22.667Z,12.70
2018-08-09T02:10:22.687Z,13.20
2018-08-09T02:11:22.708Z,13.10
2018-08-09T02:12:22.729Z,13.20
2018-08-09T02:13:22.752Z,12.80
2018-08-09T02:14:22.774Z,12.30
2018-08-09T02:15:22.793Z,12.10
2018-08-09T02:16:22.957Z,12.00
2018-08-09T02:17:22.839Z,11.60
2018-08-09T02:18:22.860Z,12.50
2018-08-09T02:19:22.881Z,12.10
2018-08-09T02:20:22.901Z,10.80
2018-08-09T02:21:22.926Z,11.00
2018-08-09T02:22:22.947Z,11.20
2018-08-09T02:23:22.966Z,10.50
2018-08-09T02:24:22.985Z,11.00
2018-08-09T02:25:23.015Z,12.50
2018-08-09T02:26:23.030Z,12.50
2018-08-09T02:27:23.050Z,11.00
2018-08-09T02:28:23.075Z,11.80
2018-08-09T02:29:23.094Z,11.40
2018-08-09T02:30:23.115Z,11.00
2018-08-09T02:31:23.144Z,12.10
2018-08-09T02:32:23.161Z,12.50
2018-08-09T02:33:23.182Z,11.90
2018-08-09T02:34:23.200Z,12.20
2018-08-09T02:35:23.220Z,11.50
2018-08-09T02:36:23.242Z,11.90
2018-08-09T02:37:23.267Z,11.00
2018-08-09T02:38:23.285Z,11.60
2018-08-09T02:39:23.311Z,11.40
2018-08-09T02:40:23.327Z,11.60
2018-08-09T02:41:23.349Z,11.60
2018-08-09T02:42:23.380Z,11.50
2018-08-09T02:43:23.392Z,11.60
2018-08-09T02:44:23.411Z,11.20
2018-08-09T02:45:23.434Z,11.50
2018-08-09T02:46:23.456Z,11.00
2018-08-09T02:47:23.476Z,11.60
2018-08-09T02:48:23.497Z,11.50
2018-08-09T02:49:23.517Z,10.80
2018-08-09T02:50:23.539Z,10.90
2018-08-09T02:51:23.559Z,11.10
2018-08-09T02:52:23.587Z,11.20
2018-08-09T02:53:23.609Z,11.00
2018-08-09T02:54:23.626Z,10.90
2018-08-09T02:55:23.647Z,10.70
2018-08-09T02:56:23.667Z,10.90
2018-08-09T02:57:23.690Z,10.90
2018-08-09T02:58:23.719Z,10.70
2018-08-09T02:59:23.735Z,11.00
2018-08-09T03:00:23.760Z,10.90
2018-08-09T03:01:23.771Z,10.70
2018-08-09T03:02:23.798Z,10.80
2018-08-09T03:03:23.817Z,10.50
2018-08-09T03:04:23.836Z,10.30
2018-08-09T03:05:23.861Z,10.30
2018-08-09T03:06:23.920Z,10.60
2018-08-09T03:07:23.900Z,10.00
2018-08-09T03:08:23.922Z,10.20
2018-08-09T03:09:23.942Z,10.40
2018-08-09T03:10:23.963Z,11.00
2018-08-09T03:11:23.984Z,10.50
2018-08-09T03:12:24.015Z,10.80
2018-08-09T03:13:24.026Z,10.30
2018-08-09T03:14:24.051Z,10.90
2018-08-09T03:15:24.076Z,10.80
2018-08-09T03:16:24.093Z,10.10
2018-08-09T03:17:24.122Z,10.90
2018-08-09T03:18:24.134Z,10.70
2018-08-09T03:19:24.283Z,10.40
2018-08-09T03:20:24.190Z,10.80
2018-08-09T03:21:24.198Z,11.00
2018-08-09T03:22:24.218Z,10.40
2018-08-09T03:23:24.239Z,10.70
2018-08-09T03:24:24.279Z,10.50
2018-08-09T03:25:24.282Z,10.70
2018-08-09T03:26:24.305Z,11.30
2018-08-09T03:27:24.329Z,11.30
2018-08-09T03:28:24.344Z,10.70
2018-08-09T03:29:24.375Z,11.10
2018-08-09T03:30:24.387Z,10.20
2018-08-09T03:31:24.409Z,10.10
2018-08-09T03:32:24.429Z,10.10
2018-08-09T03:33:24.452Z,10.30
2018-08-09T03:34:24.486Z,11.20
2018-08-09T03:35:24.491Z,11.30
2018-08-09T03:36:24.520Z,10.80
2018-08-09T03:37:24.541Z,11.20
2018-08-09T03:38:24.556Z,10.90
2018-08-09T03:39:24.577Z,11.20
2018-08-09T03:40:24.600Z,10.70
2018-08-09T03:41:24.619Z,10.90
2018-08-09T03:42:24.640Z,11.10
2018-08-09T03:43:24.661Z,11.10
2018-08-09T03:44:24.687Z,10.80
2018-08-09T03:45:24.720Z,10.70
2018-08-09T03:46:24.724Z,10.60
2018-08-09T03:47:24.748Z,10.50
2018-08-09T03:48:24.769Z,11.00
2018-08-09T03:49:24.791Z,11.30
2018-08-09T03:50:24.807Z,10.80
2018-08-09T03:51:24.829Z,10.60
2018-08-09T03:52:24.850Z,11.00
2018-08-09T03:53:24.874Z,10.90
2018-08-09T03:54:24.896Z,11.00
2018-08-09T03:55:24.918Z,10.70
2018-08-09T03:56:24.936Z,11.70
2018-08-09T03:57:24.958Z,10.90
2018-08-09T03:58:24.977Z,10.50
2018-08-09T03:59:24.999Z,11.00
2018-08-09T04:00:25.041Z,10.80
2018-08-09T04:01:25.043Z,11.10
2018-08-09T04:02:25.066Z,11.00
2018-08-09T04:03:25.087Z,10.80
2018-08-09T04:04:25.132Z,10.90
2018-08-09T04:05:25.127Z,11.10
2018-08-09T04:06:25.146Z,11.10
2018-08-09T04:07:25.169Z,10.40
2018-08-09T04:08:25.192Z,11.30
2018-08-09T04:09:25.233Z,10.40
2018-08-09T04:10:25.245Z,10.90
2018-08-09T04:11:25.255Z,11.60
2018-08-09T04:12:25.282Z,11.00
2018-08-09T04:13:25.296Z,10.70
2018-08-09T04:14:25.320Z,11.40
2018-08-09T04:15:25.364Z,11.50
2018-08-09T04:16:25.360Z,11.70
2018-08-09T04:17:25.379Z,10.90
2018-08-09T04:18:25.399Z,11.70
2018-08-09T04:19:25.438Z,10.50
2018-08-09T04:20:25.483Z,10.90
2018-08-09T04:21:25.474Z,10.50
2018-08-09T04:22:25.490Z,11.10
2018-08-09T04:23:25.510Z,10.90
2018-08-09T04:24:25.532Z,10.80
2018-08-09T04:25:25.551Z,11.60
2018-08-09T04:26:25.579Z,11.00
2018-08-09T04:27:25.594Z,10.70
2018-08-09T04:28:25.613Z,10.70
2018-08-09T04:29:25.651Z,10.30
2018-08-09T04:30:25.684Z,10.70
2018-08-09T04:31:25.679Z,10.90
2018-08-09T04:32:25.699Z,10.70
2018-08-09T04:33:25.725Z,10.50
2018-08-09T04:34:25.744Z,11.00
2018-08-09T04:35:25.774Z,10.80
2018-08-09T04:36:25.786Z,10.40
2018-08-09T04:37:25.805Z,10.30
2018-08-09T04:38:25.828Z,10.80
2018-08-09T04:39:25.849Z,10.60
2018-08-09T04:40:25.870Z,10.60
2018-08-09T04:41:25.896Z,10.50
2018-08-09T04:42:25.912Z,11.00
2018-08-09T04:43:25.940Z,10.20
2018-08-09T04:44:25.972Z,10.10
2018-08-09T04:45:25.975Z,10.80
2018-08-09T04:46:25.999Z,10.70
2018-08-09T04:47:26.024Z,10.40
2018-08-09T04:48:26.042Z,11.20
2018-08-09T04:49:26.080Z,10.70
2018-08-09T04:50:26.093Z,10.80
2018-08-09T04:51:26.109Z,10.60
2018-08-09T04:52:26.130Z,11.10
2018-08-09T04:53:26.150Z,10.70
2018-08-09T04:54:26.180Z,10.50
2018-08-09T04:55:26.191Z,10.40
2018-08-09T04:56:26.213Z,10.10
2018-08-09T04:57:26.244Z,9.80
2018-08-09T04:58:26.302Z,10.20
2018-08-09T04:59:26.280Z,10.50
2018-08-09T05:00:26.301Z,10.60
2018-08-09T05:01:26.323Z,10.30
2018-08-09T05:02:26.344Z,10.60
2018-08-09T05:03:26.368Z,8.80
2018-08-09T05:04:26.388Z,10.00
2018-08-09T05:05:26.411Z,9.60
2018-08-09T05:06:26.431Z,9.80
2018-08-09T05:07:26.458Z,10.20
2018-08-09T05:08:26.477Z,9.60
2018-08-09T05:09:26.509Z,9.80
2018-08-09T05:10:26.633Z,9.50
2018-08-09T05:11:26.548Z,9.20
2018-08-09T05:12:26.567Z,9.80
2018-08-09T05:13:26.588Z,9.00
2018-08-09T05:14:26.756Z,9.70
2018-08-09T05:15:26.632Z,9.40
2018-08-09T05:16:26.665Z,8.80
2018-08-09T05:17:26.688Z,8.60
2018-08-09T05:18:26.703Z,9.40
2018-08-09T05:19:26.723Z,9.00
2018-08-09T05:20:26.747Z,9.30
2018-08-09T05:21:26.780Z,9.40
2018-08-09T05:22:26.801Z,9.00
2018-08-09T05:23:26.825Z,8.70
2018-08-09T05:24:26.849Z,9.10
2018-08-09T05:25:26.867Z,9.30
2018-08-09T05:26:26.941Z,9.10
2018-08-09T05:27:26.913Z,8.90
2018-08-09T05:28:26.939Z,9.20
2018-08-09T05:29:26.972Z,8.40
2018-08-09T05:30:26.984Z,8.50
2018-08-09T05:31:27.012Z,8.30
2018-08-09T05:32:27.036Z,8.50
2018-08-09T05:33:27.060Z,8.30
2018-08-09T05:34:27.086Z,8.60
2018-08-09T05:35:27.154Z,8.70
2018-08-09T05:36:27.132Z,8.40
2018-08-09T05:37:27.158Z,8.60
2018-08-09T05:38:27.183Z,8.10
2018-08-09T05:39:27.206Z,8.40
2018-08-09T05:40:27.230Z,7.40
2018-08-09T05:41:27.261Z,8.80
2018-08-09T05:42:27.282Z,8.10
2018-08-09T05:43:27.305Z,8.50
2018-08-09T05:44:27.330Z,8.70
2018-08-09T05:45:27.358Z,8.10
2018-08-09T05:46:27.385Z,8.60
2018-08-09T05:47:27.405Z,8.70
2018-08-09T05:48:27.426Z,9.10
2018-08-09T05:49:27.451Z,9.40
2018-08-09T05:50:27.485Z,9.80
2018-08-09T05:51:27.501Z,9.60
2018-08-09T05:52:27.527Z,9.10
2018-08-09T05:53:27.549Z,9.30
2018-08-09T05:54:27.573Z,9.40
2018-08-09T05:55:27.599Z,8.80
2018-08-09T05:56:27.624Z,9.40
2018-08-09T05:57:27.652Z,8.90
2018-08-09T05:58:27.700Z,8.90
2018-08-09T05:59:27.702Z,8.80
2018-08-09T06:00:27.729Z,8.40
2018-08-09T06:01:27.752Z,9.40
2018-08-09T06:02:27.774Z,8.50
2018-08-09T06:03:27.798Z,8.10
2018-08-09T06:04:27.829Z,8.30
2018-08-09T06:05:27.853Z,9.00
2018-08-09T06:06:27.893Z,8.50
2018-08-09T06:07:27.906Z,8.70
2018-08-09T06:08:27.931Z,9.10
2018-08-09T06:09:27.960Z,9.20
2018-08-09T06:10:27.980Z,9.50
2018-08-09T06:11:28.007Z,8.90
2018-08-09T06:12:28.033Z,9.50
2018-08-09T06:13:28.145Z,8.20
2018-08-09T06:14:28.089Z,9.80
2018-08-09T06:15:28.119Z,9.20
2018-08-09T06:16:28.138Z,8.60
2018-08-09T06:17:28.164Z,8.10
2018-08-09T06:18:28.196Z,8.70
2018-08-09T06:19:28.222Z,8.70
2018-08-09T06:20:28.244Z,9.40
2018-08-09T06:21:28.272Z,9.10
2018-08-09T06:22:28.303Z,9.30
2018-08-09T06:23:28.326Z,8.60
2018-08-09T06:24:28.353Z,9.30
2018-08-09T06:25:28.379Z,9.40
2018-08-09T06:26:28.516Z,9.70
2018-08-09T06:27:28.430Z,9.90
2018-08-09T06:28:28.458Z,10.30
2018-08-09T06:29:28.482Z,11.00
2018-08-09T06:30:28.511Z,10.40
2018-08-09T06:31:28.536Z,9.00
2018-08-09T06:32:28.559Z,9.00
2018-08-09T06:33:28.650Z,9.30
2018-08-09T06:34:28.617Z,8.70
2018-08-09T06:35:28.641Z,9.10
2018-08-09T06:36:28.676Z,8.50
2018-08-09T06:37:28.715Z,8.90
2018-08-09T06:38:28.721Z,8.90
2018-08-09T06:39:28.745Z,8.60
2018-08-09T06:40:28.774Z,9.20
2018-08-09T06:41:28.803Z,8.80
2018-08-09T06:42:28.827Z,9.20
2018-08-09T06:43:28.853Z,8.20
2018-08-09T06:44:28.884Z,8.40
2018-08-09T06:45:28.909Z,8.50
2018-08-09T06:46:28.940Z,8.60
2018-08-09T06:47:28.987Z,8.30
2018-08-09T06:48:28.990Z,8.40
2018-08-09T06:49:29.021Z,8.40
2018-08-09T06:50:29.049Z,8.90
2018-08-09T06:51:29.076Z,7.60
2018-08-09T06:52:29.109Z,8.00
2018-08-09T06:53:29.132Z,8.40
2018-08-09T06:54:29.168Z,7.60
2018-08-09T06:55:29.186Z,8.20
2018-08-09T06:56:29.211Z,7.70
2018-08-09T06:57:29.244Z,7.80
2018-08-09T06:58:29.269Z,7.70
2018-08-09T06:59:29.296Z,7.00
2018-08-09T07:00:29.325Z,7.20
2018-08-09T07:01:29.358Z,7.90
2018-08-09T07:02:29.380Z,7.50
2018-08-09T07:03:29.412Z,7.80
2018-08-09T07:04:29.443Z,7.30
2018-08-09T07:05:29.465Z,7.60
2018-08-09T07:06:29.493Z,8.00
2018-08-09T07:07:29.523Z,7.80
2018-08-09T07:08:29.550Z,8.00
2018-08-09T07:09:29.576Z,7.80
2018-08-09T07:10:29.603Z,7.00
2018-08-09T07:11:29.641Z,7.20
2018-08-09T07:12:29.657Z,6.80
2018-08-09T07:13:29.685Z,7.00
2018-08-09T07:14:29.715Z,7.60
2018-08-09T07:15:29.742Z,7.60
2018-08-09T07:16:29.768Z,7.20
2018-08-09T07:17:29.805Z,7.10
2018-08-09T07:18:29.825Z,7.30
2018-08-09T07:19:29.864Z,7.20
2018-08-09T07:20:30.017Z,7.10
2018-08-09T07:21:29.922Z,7.00
2018-08-09T07:22:29.941Z,6.70
2018-08-09T07:23:29.971Z,7.10
2018-08-09T07:24:29.999Z,6.90
2018-08-09T07:25:30.026Z,6.70
2018-08-09T07:26:30.064Z,6.60
2018-08-09T07:27:30.085Z,6.80
2018-08-09T07:28:30.125Z,6.60
2018-08-09T07:29:30.141Z,6.70
2018-08-09T07:30:30.180Z,6.40
2018-08-09T07:31:30.200Z,6.70
2018-08-09T07:32:30.232Z,7.30
2018-08-09T07:33:30.271Z,7.30
2018-08-09T07:34:30.319Z,6.80
2018-08-09T07:35:30.319Z,6.90
2018-08-09T07:36:30.387Z,6.90
2018-08-09T07:37:30.388Z,6.40
2018-08-09T07:38:30.408Z,6.20
2018-08-09T07:39:30.515Z,6.00
2018-08-09T07:40:30.460Z,6.80
2018-08-09T07:41:30.492Z,6.60
2018-08-09T07:42:30.516Z,6.80
2018-08-09T07:43:30.578Z,6.70
2018-08-09T07:44:30.585Z,6.30
2018-08-09T07:45:30.608Z,6.40
2018-08-09T07:46:30.631Z,6.70
2018-08-09T07:47:30.667Z,6.70
2018-08-09T07:48:30.758Z,6.30
2018-08-09T07:49:30.721Z,6.40
2018-08-09T07:50:30.749Z,6.20
2018-08-09T07:51:30.779Z,6.30
2018-08-09T07:52:30.806Z,7.00
2018-08-09T07:53:30.844Z,6.40
2018-08-09T07:54:30.860Z,6.60
2018-08-09T07:55:30.892Z,6.50
2018-08-09T07:56:30.918Z,5.80
2018-08-09T07:57:30.974Z,6.50
2018-08-09T07:58:30.988Z,6.00
2018-08-09T07:59:31.000Z,6.70
2018-08-09T08:00:31.033Z,7.10
2018-08-09T08:01:31.066Z,6.70
2018-08-09T08:02:31.087Z,7.20
2018-08-09T08:03:31.121Z,7.20
2018-08-09T08:04:31.142Z,7.20
2018-08-09T08:05:31.169Z,7.20
2018-08-09T08:06:31.204Z,7.00
2018-08-09T08:07:31.229Z,6.80
2018-08-09T08:08:31.301Z,6.90
2018-08-09T08:09:31.293Z,6.10
2018-08-09T08:10:31.313Z,7.00
2018-08-09T08:11:31.337Z,6.40
2018-08-09T08:12:31.366Z,6.70
2018-08-09T08:13:31.394Z,6.50
2018-08-09T08:14:31.448Z,6.60
2018-08-09T08:15:31.449Z,6.30
2018-08-09T08:16:31.547Z,7.10
2018-08-09T08:17:31.503Z,6.20
2018-08-09T08:18:31.535Z,6.90
2018-08-09T08:19:31.561Z,6.60
2018-08-09T08:20:31.588Z,6.80
2018-08-09T08:21:31.621Z,6.20
2018-08-09T08:22:31.646Z,7.10
2018-08-09T08:23:31.671Z,6.50
2018-08-09T08:24:31.698Z,6.40
2018-08-09T08:25:31.733Z,5.70
2018-08-09T08:26:31.755Z,6.20
2018-08-09T08:27:31.786Z,6.20
2018-08-09T08:28:31.811Z,6.40
2018-08-09T08:29:31.837Z,6.20
2018-08-09T08:30:31.865Z,6.20
2018-08-09T08:31:31.895Z,6.50
2018-08-09T08:32:31.921Z,6.60
2018-08-09T08:33:31.947Z,5.90
2018-08-09T08:34:32.010Z,6.30
2018-08-09T08:35:32.009Z,6.10
2018-08-09T08:36:32.031Z,6.30
2018-08-09T08:37:32.059Z,6.40
2018-08-09T08:38:32.085Z,6.70
2018-08-09T08:39:32.108Z,6.50
2018-08-09T08:40:32.138Z,6.50
2018-08-09T08:41:32.219Z,6.20
2018-08-09T08:42:32.188Z,6.50
2018-08-09T08:43:32.220Z,6.50
2018-08-09T08:44:32.240Z,6.40
2018-08-09T08:45:32.267Z,7.40
2018-08-09T08:46:32.296Z,7.40
2018-08-09T08:47:32.331Z,6.40
2018-08-09T08:48:32.346Z,6.70
2018-08-09T08:49:32.374Z,6.70
2018-08-09T08:50:32.399Z,7.20
2018-08-09T08:51:32.426Z,6.70
2018-08-09T08:52:32.454Z,6.40
2018-08-09T08:53:32.489Z,6.70
2018-08-09T08:54:32.504Z,7.40
2018-08-09T08:55:32.532Z,6.90
2018-08-09T08:56:32.558Z,6.40
2018-08-09T08:57:32.591Z,7.20
2018-08-09T08:58:32.614Z,7.10
2018-08-09T08:59:32.635Z,7.00
2018-08-09T09:00:32.663Z,6.80
2018-08-09T09:01:32.688Z,6.60
2018-08-09T09:02:32.713Z,6.40
2018-08-09T09:03:32.747Z,7.10
2018-08-09T09:04:32.839Z,7.20
2018-08-09T09:05:32.795Z,7.40
2018-08-09T09:06:32.823Z,8.20
2018-08-09T09:07:32.847Z,7.70
2018-08-09T09:08:32.871Z,7.00
2018-08-09T09:09:32.898Z,7.00
2018-08-09T09:10:32.923Z,7.50
2018-08-09T09:11:32.953Z,7.60
2018-08-09T09:12:32.974Z,6.80
2018-08-09T09:13:33.005Z,6.30
2018-08-09T09:14:33.034Z,7.40
2018-08-09T09:15:33.052Z,6.90
2018-08-09T09:16:33.082Z,6.70
2018-08-09T09:17:33.106Z,6.80
2018-08-09T09:18:33.137Z,7.20
2018-08-09T09:19:33.161Z,6.80
2018-08-09T09:20:33.184Z,6.90
2018-08-09T09:21:33.213Z,6.50
2018-08-09T09:22:33.237Z,7.20
2018-08-09T09:23:33.265Z,6.20
2018-08-09T09:24:33.287Z,6.80
2018-08-09T09:25:33.316Z,6.50
2018-08-09T09:26:33.341Z,7.00
2018-08-09T09:27:33.366Z,7.60
2018-08-09T09:28:33.393Z,7.40
2018-08-09T09:29:33.428Z,7.40
2018-08-09T09:30:33.446Z,7.10
2018-08-09T09:31:33.509Z,7.20
2018-08-09T09:32:33.498Z,6.60
2018-08-09T09:33:33.526Z,7.10
2018-08-09T09:34:33.554Z,6.90
2018-08-09T09:35:33.580Z,6.90
2018-08-09T09:36:33.609Z,6.70
2018-08-09T09:37:33.633Z,6.90
2018-08-09T09:38:33.660Z,7.50
2018-08-09T09:39:33.685Z,7.10
2018-08-09T09:40:33.718Z,6.80
2018-08-09T09:41:33.747Z,7.10
2018-08-09T09:42:33.766Z,6.90
2018-08-09T09:43:33.808Z,7.00
2018-08-09T09:44:33.822Z,6.70
2018-08-09T09:45:33.851Z,6.50
2018-08-09T09:46:33.875Z,6.50
2018-08-09T09:47:33.904Z,6.30
2018-08-09T09:48:33.933Z,6.30
2018-08-09T09:49:33.957Z,6.50
2018-08-09T09:50:33.987Z,6.50
2018-08-09T09:51:34.015Z,6.80
2018-08-09T09:52:34.050Z,7.00
2018-08-09T09:53:34.067Z,7.00
2018-08-09T09:54:34.092Z,6.90
2018-08-09T09:55:34.117Z,6.70
2018-08-09T09:56:34.147Z,6.70
2018-08-09T09:57:34.180Z,6.50
2018-08-09T09:58:34.202Z,6.00
2018-08-09T09:59:34.228Z,6.40
2018-08-09T10:00:34.254Z,6.20
2018-08-09T10:01:34.280Z,6.10
2018-08-09T10:02:34.322Z,6.50
2018-08-09T10:03:34.466Z,6.40
2018-08-09T10:04:34.372Z,6.20
2018-08-09T10:05:34.391Z,6.90
2018-08-09T10:06:34.413Z,6.60
2018-08-09T10:07:34.443Z,5.50
2018-08-09T10:08:34.472Z,6.40
2018-08-09T10:09:34.499Z,6.60
2018-08-09T10:10:34.593Z,6.20
2018-08-09T10:11:34.558Z,6.00
2018-08-09T10:12:34.577Z,6.00
2018-08-09T10:13:34.604Z,6.60
2018-08-09T10:14:34.635Z,5.90
2018-08-09T10:15:34.661Z,6.30
2018-08-09T10:16:34.687Z,6.00
2018-08-09T10:17:34.729Z,6.50
2018-08-09T10:18:34.746Z,6.00
2018-08-09T10:19:34.787Z,6.70
2018-08-09T10:20:34.799Z,6.40
2018-08-09T10:21:34.827Z,6.80
2018-08-09T10:22:34.855Z,6.20
2018-08-09T10:23:34.922Z,6.20
2018-08-09T10:24:34.908Z,6.10
2018-08-09T10:25:34.938Z,6.20
2018-08-09T10:26:34.966Z,6.40
2018-08-09T10:27:34.995Z,6.30
2018-08-09T10:28:35.018Z,5.80
2018-08-09T10:29:35.052Z,6.40
2018-08-09T10:30:35.077Z,6.20
2018-08-09T10:31:35.101Z,6.80
2018-08-09T10:32:35.127Z,6.90
2018-08-09T10:33:35.153Z,6.40
2018-08-09T10:34:35.186Z,6.50
2018-08-09T10:35:35.244Z,6.40
2018-08-09T10:36:35.243Z,6.60
2018-08-09T10:37:35.262Z,6.60
2018-08-09T10:38:35.288Z,6.10
2018-08-09T10:39:35.321Z,6.40
2018-08-09T10:40:35.339Z,6.70
2018-08-09T10:41:35.372Z,7.20
2018-08-09T10:42:35.399Z,6.60
2018-08-09T10:43:35.425Z,6.30
2018-08-09T10:44:35.453Z,6.10
2018-08-09T10:45:35.474Z,5.60
2018-08-09T10:46:35.502Z,6.30
2018-08-09T10:47:35.529Z,6.30
2018-08-09T10:48:35.555Z,6.50
2018-08-09T10:49:35.589Z,6.30
2018-08-09T10:50:35.608Z,5.90
2018-08-09T10:51:35.633Z,6.10
2018-08-09T10:52:35.663Z,6.50
2018-08-09T10:53:35.690Z,6.20
2018-08-09T10:54:35.716Z,6.40
2018-08-09T10:55:35.822Z,7.10
2018-08-09T10:56:35.769Z,6.50
2018-08-09T10:57:35.795Z,5.90
2018-08-09T10:58:35.825Z,6.70
2018-08-09T10:59:35.850Z,5.90
2018-08-09T11:00:35.875Z,6.60
2018-08-09T11:01:35.902Z,6.50
2018-08-09T11:02:35.928Z,6.70
2018-08-09T11:03:35.954Z,6.10
2018-08-09T11:04:35.989Z,6.10
2018-08-09T11:05:36.015Z,6.20
2018-08-09T11:06:36.032Z,6.20
2018-08-09T11:07:36.059Z,5.90
2018-08-09T11:08:36.100Z,6.70
2018-08-09T11:09:36.122Z,6.90
2018-08-09T11:10:36.137Z,6.40
2018-08-09T11:11:36.164Z,6.80
2018-08-09T11:12:36.193Z,6.20
2018-08-09T11:13:36.219Z,6.90
2018-08-09T11:14:36.247Z,6.90
2018-08-09T11:15:36.272Z,6.20
2018-08-09T11:16:36.299Z,5.90
2018-08-09T11:17:36.324Z,5.80
2018-08-09T11:18:36.350Z,5.90
2018-08-09T11:19:36.374Z,5.90
2018-08-09T11:20:36.403Z,5.60
2018-08-09T11:21:36.437Z,6.10
2018-08-09T11:22:36.456Z,6.00
2018-08-09T11:23:36.513Z,6.30
2018-08-09T11:24:36.505Z,6.20
2018-08-09T11:25:36.534Z,6.10
2018-08-09T11:26:36.563Z,5.60
2018-08-09T11:27:36.587Z,5.80
2018-08-09T11:28:36.611Z,5.80
2018-08-09T11:29:36.645Z,6.30
2018-08-09T11:30:36.666Z,5.70
2018-08-09T11:31:36.694Z,6.00
2018-08-09T11:32:36.721Z,6.60
2018-08-09T11:33:36.748Z,5.90
2018-08-09T11:34:36.778Z,6.20
2018-08-09T11:35:36.800Z,6.00
2018-08-09T11:36:36.825Z,6.70
2018-08-09T11:37:36.853Z,5.40
2018-08-09T11:38:36.884Z,5.30
2018-08-09T11:39:36.908Z,5.60
2018-08-09T11:40:36.931Z,5.70
2018-08-09T11:41:36.961Z,5.50
2018-08-09T11:42:36.989Z,5.70
2018-08-09T11:43:37.016Z,5.20
2018-08-09T11:44:37.045Z,5.40
2018-08-09T11:45:37.068Z,5.20
2018-08-09T11:46:37.093Z,6.00
2018-08-09T11:47:37.120Z,5.50
2018-08-09T11:48:37.147Z,5.10
2018-08-09T11:49:37.185Z,5.10
2018-08-09T11:50:37.202Z,4.70
2018-08-09T11:51:37.233Z,5.00
2018-08-09T11:52:37.255Z,4.90
2018-08-09T11:53:37.296Z,5.10
2018-08-09T11:54:37.313Z,4.90
2018-08-09T11:55:37.336Z,5.00
2018-08-09T11:56:37.433Z,4.60
2018-08-09T11:57:37.390Z,4.60
2018-08-09T11:58:37.418Z,4.80
2018-08-09T11:59:37.448Z,4.80
2018-08-09T12:00:37.471Z,5.30
2018-08-09T12:01:37.542Z,5.10
2018-08-09T12:02:37.525Z,5.40
2018-08-09T12:03:37.555Z,4.90
2018-08-09T12:04:37.635Z,4.90
2018-08-09T12:05:37.607Z,4.60
2018-08-09T12:06:37.645Z,5.10
2018-08-09T12:07:37.661Z,4.70
2018-08-09T12:08:37.690Z,4.70
2018-08-09T12:09:37.716Z,4.90
2018-08-09T12:10:37.742Z,4.90
2018-08-09T12:11:37.772Z,5.00
2018-08-09T12:12:37.804Z,4.80
2018-08-09T12:13:37.897Z,4.60
2018-08-09T12:14:37.851Z,4.60
2018-08-09T12:15:37.878Z,5.10
2018-08-09T12:16:37.912Z,4.40
2018-08-09T12:17:37.959Z,4.40
2018-08-09T12:18:37.970Z,4.10
2018-08-09T12:19:37.986Z,4.30
2018-08-09T12:20:38.051Z,4.50
2018-08-09T12:21:38.167Z,5.20
2018-08-09T12:22:38.105Z,4.90
2018-08-09T12:23:38.109Z,4.80
2018-08-09T12:24:38.129Z,4.10
2018-08-09T12:25:38.150Z,5.40
2018-08-09T12:26:38.181Z,4.40
2018-08-09T12:27:38.210Z,4.40
2018-08-09T12:28:38.233Z,4.90
2018-08-09T12:29:38.354Z,4.80
2018-08-09T12:30:38.289Z,4.90
2018-08-09T12:31:38.317Z,4.90
2018-08-09T12:32:38.346Z,4.50
2018-08-09T12:33:38.373Z,4.50
2018-08-09T12:34:38.396Z,4.60
2018-08-09T12:35:38.423Z,4.50
2018-08-09T12:36:38.514Z,4.30
2018-08-09T12:37:38.505Z,4.10
2018-08-09T12:38:38.504Z,4.20
2018-08-09T12:39:38.533Z,4.40
2018-08-09T12:40:38.565Z,5.20
2018-08-09T12:41:38.585Z,4.80
2018-08-09T12:42:38.614Z,4.30
2018-08-09T12:43:38.641Z,4.40
2018-08-09T12:44:38.666Z,4.60
2018-08-09T12:45:38.750Z,4.30
2018-08-09T12:46:38.721Z,4.40
2018-08-09T12:47:38.867Z,4.40
2018-08-09T12:48:38.786Z,4.00
2018-08-09T12:49:38.812Z,4.50
2018-08-09T12:50:38.849Z,4.80
2018-08-09T12:51:38.892Z,4.40
2018-08-09T12:52:38.883Z,4.50
2018-08-09T12:53:39.037Z,4.80
2018-08-09T12:54:38.939Z,4.80
2018-08-09T12:55:38.966Z,4.10
2018-08-09T12:56:38.992Z,4.50
2018-08-09T12:57:39.043Z,4.40
2018-08-09T12:58:39.069Z,4.00
2018-08-09T12:59:39.076Z,4.90
2018-08-09T13:00:39.108Z,4.90
2018-08-09T13:01:39.131Z,4.50
2018-08-09T13:02:39.156Z,4.50
2018-08-09T13:03:39.185Z,4.40
2018-08-09T13:04:39.209Z,4.40
2018-08-09T13:05:39.240Z,4.80
2018-08-09T13:06:39.268Z,4.40
2018-08-09T13:07:39.299Z,4.30
2018-08-09T13:08:39.323Z,4.20